createdAt,value
2023-01-19T00:01:15.258Z,24.10
2023-01-19T00:06:37.086Z,29.20
2023-01-19T00:12:00.415Z,28.70
2023-01-19T00:17:21.921Z,28.30
2023-01-19T00:22:43.875Z,30.00
2023-01-19T00:28:06.008Z,31.90
2023-01-19T00:33:30.342Z,24.70
2023-01-19T00:38:52.081Z,19.10
2023-01-19T00:44:14.106Z,21.30
2023-01-19T00:49:36.132Z,20.10
2023-01-19T00:54:58.029Z,21.40
2023-01-19T01:00:21.419Z,25.60
2023-01-19T01:05:42.958Z,29.30
2023-01-19T01:11:05.220Z,34.70
2023-01-19T01:16:27.519Z,33.30
2023-01-19T01:21:49.211Z,26.60
2023-01-19T01:27:11.952Z,25.00
2023-01-19T01:32:33.780Z,26.10
2023-01-19T01:37:59.132Z,29.10
2023-01-19T01:43:21.142Z,26.70
2023-01-19T01:49:05.555Z,26.50
2023-01-19T01:54:29.993Z,28.90
2023-01-19T01:59:52.442Z,32.60
2023-01-19T02:05:36.126Z,28.80
2023-01-19T02:11:17.739Z,26.90
2023-01-19T02:16:39.778Z,27.90
2023-01-19T02:22:10.225Z,28.20
2023-01-19T02:27:33.149Z,28.40
2023-01-19T02:32:54.885Z,30.80
2023-01-19T02:38:19.214Z,29.30
2023-01-19T02:43:42.145Z,32.50
2023-01-19T02:49:04.476Z,32.40
2023-01-19T02:55:07.694Z,31.60
2023-01-19T03:00:33.012Z,32.60
2023-01-19T03:06:14.605Z,35.40
2023-01-19T03:11:40.231Z,35.90
2023-01-19T03:17:05.192Z,33.80
2023-01-19T03:22:29.523Z,34.80
2023-01-19T03:27:54.247Z,36.40
2023-01-19T03:33:28.042Z,36.20
2023-01-19T03:38:51.051Z,38.10
2023-01-19T03:44:13.087Z,37.90
2023-01-19T03:49:36.729Z,40.50
2023-01-19T03:54:58.349Z,37.80
2023-01-19T04:00:22.587Z,55.20
2023-01-19T04:05:46.123Z,42.30
2023-01-19T04:11:08.652Z,40.80
2023-01-19T04:16:30.479Z,41.30
2023-01-19T04:21:52.308Z,40.50
2023-01-19T04:27:16.405Z,41.30
2023-01-19T04:32:38.377Z,44.40
2023-01-19T04:38:00.483Z,42.60
2023-01-19T04:43:23.355Z,46.10
2023-01-19T04:48:45.219Z,61.80
2023-01-19T04:54:09.247Z,62.50
2023-01-19T04:59:31.329Z,67.00
2023-01-19T05:04:53.452Z,67.00
2023-01-19T05:10:15.397Z,66.70
2023-01-19T05:15:37.219Z,70.80
2023-01-19T05:20:59.460Z,62.30
2023-01-19T05:26:21.400Z,68.40
2023-01-19T05:31:43.279Z,63.80
2023-01-19T05:37:05.830Z,64.80
2023-01-19T05:42:27.672Z,56.50
2023-01-19T05:47:49.998Z,54.60
2023-01-19T05:53:11.827Z,49.40
2023-01-19T05:58:35.459Z,54.00
2023-01-19T06:03:57.395Z,51.80
2023-01-19T06:09:19.337Z,48.60
2023-01-19T06:14:41.254Z,48.70
2023-01-19T06:20:03.279Z,48.70
2023-01-19T06:25:26.113Z,43.30
2023-01-19T06:30:51.802Z,44.30
2023-01-19T06:36:13.786Z,44.90
2023-01-19T06:41:36.830Z,53.80
2023-01-19T06:47:15.975Z,45.00
2023-01-19T06:52:42.720Z,30.90
2023-01-19T06:58:05.687Z,21.70
2023-01-19T07:03:27.384Z,21.00
2023-01-19T07:08:49.362Z,20.90
2023-01-19T07:14:11.878Z,19.90
2023-01-19T07:19:35.410Z,23.40
2023-01-19T07:24:58.456Z,24.30
2023-01-19T07:30:20.373Z,21.80
2023-01-19T07:35:49.812Z,20.90
2023-01-19T07:41:11.880Z,30.00
2023-01-19T07:46:33.588Z,33.70
2023-01-19T07:51:56.524Z,28.20
2023-01-19T07:57:19.344Z,29.10
2023-01-19T08:02:41.586Z,30.80
2023-01-19T08:08:06.223Z,48.20
2023-01-19T08:13:28.051Z,26.00
2023-01-19T08:18:50.148Z,26.00
2023-01-19T08:24:19.161Z,21.60
2023-01-19T08:29:41.023Z,22.80
2023-01-19T08:35:03.699Z,28.80
2023-01-19T08:40:25.936Z,21.00
2023-01-19T08:45:51.673Z,31.00
2023-01-19T08:51:15.466Z,26.90
2023-01-19T08:56:37.337Z,20.80
2023-01-19T09:01:59.395Z,24.40
2023-01-19T09:07:21.196Z,21.00
2023-01-19T09:12:45.079Z,20.30
2023-01-19T09:18:13.621Z,36.00
2023-01-19T09:23:35.531Z,21.20
2023-01-19T09:28:58.254Z,20.70
2023-01-19T09:34:21.275Z,19.00
2023-01-19T09:39:43.044Z,41.90
2023-01-19T09:45:27.012Z,19.80
2023-01-19T09:50:49.341Z,18.30
2023-01-19T09:56:15.893Z,18.50
2023-01-19T10:01:46.253Z,25.30
2023-01-19T10:07:37.477Z,19.20
2023-01-19T10:13:17.777Z,25.40
2023-01-19T10:19:01.411Z,19.90
2023-01-19T10:24:28.626Z,21.20
2023-01-19T10:29:50.261Z,31.90
2023-01-19T10:35:24.818Z,39.30
2023-01-19T10:40:53.732Z,25.30
2023-01-19T10:46:32.651Z,26.20
2023-01-19T10:51:55.884Z,31.90
2023-01-19T10:57:32.989Z,26.20
2023-01-19T11:02:54.764Z,23.20
2023-01-19T11:08:27.695Z,45.70
2023-01-19T11:14:05.472Z,32.60
2023-01-19T11:19:30.410Z,27.30
2023-01-19T11:24:52.286Z,24.30
2023-01-19T11:30:20.284Z,19.00
2023-01-19T11:35:42.216Z,18.30
2023-01-19T11:41:06.759Z,19.90
2023-01-19T11:46:33.717Z,16.00
2023-01-19T11:52:06.169Z,19.80
2023-01-19T11:57:27.999Z,17.70
2023-01-19T12:02:53.638Z,27.90
2023-01-19T12:08:20.857Z,19.50
2023-01-19T12:13:44.223Z,22.50
2023-01-19T12:19:18.008Z,15.90
2023-01-19T12:25:18.061Z,14.00
2023-01-19T12:30:40.408Z,24.00
2023-01-19T12:36:20.986Z,22.60
2023-01-19T12:41:43.110Z,22.30
2023-01-19T12:47:10.768Z,18.00
2023-01-19T12:52:40.572Z,20.70
2023-01-19T12:58:06.668Z,15.80
2023-01-19T13:03:28.489Z,14.60
2023-01-19T13:08:52.832Z,20.10
2023-01-19T13:14:35.040Z,14.10
2023-01-19T13:20:04.581Z,14.10
2023-01-19T13:25:35.645Z,16.80
2023-01-19T13:30:59.496Z,18.50
2023-01-19T13:36:33.346Z,19.80
2023-01-19T13:41:58.193Z,11.30
2023-01-19T13:47:25.891Z,9.60
2023-01-19T13:52:49.028Z,12.40
2023-01-19T13:58:22.338Z,13.00
2023-01-19T14:03:46.583Z,26.10
2023-01-19T14:09:18.684Z,19.10
2023-01-19T14:14:42.085Z,21.50
2023-01-19T14:20:05.623Z,13.60
2023-01-19T14:25:35.453Z,19.80
2023-01-19T14:31:02.146Z,17.30
2023-01-19T14:36:39.617Z,21.40
2023-01-19T14:42:04.643Z,41.10
2023-01-19T14:47:29.752Z,26.30
2023-01-19T14:53:03.422Z,22.80
2023-01-19T14:58:27.497Z,25.00
2023-01-19T15:03:48.972Z,23.60
2023-01-19T15:09:12.857Z,16.30
2023-01-19T15:14:34.583Z,19.60
2023-01-19T15:19:56.819Z,23.20
2023-01-19T15:25:27.177Z,28.40
2023-01-19T15:30:52.110Z,22.00
2023-01-19T15:36:17.855Z,24.60
2023-01-19T15:41:46.607Z,19.90
2023-01-19T15:47:09.531Z,19.70
2023-01-19T15:52:31.069Z,22.20
2023-01-19T15:57:53.114Z,20.60
2023-01-19T16:03:14.728Z,20.70
2023-01-19T16:08:37.510Z,17.50
2023-01-19T16:13:59.595Z,16.90
2023-01-19T16:19:21.128Z,21.40
2023-01-19T16:24:43.133Z,29.10
2023-01-19T16:30:05.880Z,39.70
2023-01-19T16:35:27.808Z,31.40
2023-01-19T16:40:49.738Z,33.60
2023-01-19T16:46:23.335Z,27.50
2023-01-19T16:51:45.947Z,23.40
2023-01-19T16:57:07.888Z,23.40
2023-01-19T17:02:30.236Z,19.30
2023-01-19T17:07:52.136Z,25.40
2023-01-19T17:13:14.057Z,24.60
2023-01-19T17:18:37.196Z,21.10
2023-01-19T17:23:59.370Z,25.50
2023-01-19T17:29:21.052Z,31.20
2023-01-19T17:34:42.517Z,33.90
2023-01-19T17:40:05.115Z,50.50
2023-01-19T17:45:26.976Z,31.90
2023-01-19T17:50:49.072Z,28.50
2023-01-19T17:56:14.879Z,24.00
2023-01-19T18:01:41.213Z,22.40
2023-01-19T18:07:03.086Z,26.00
2023-01-19T18:12:25.238Z,24.10
2023-01-19T18:17:47.025Z,28.30
2023-01-19T18:23:08.678Z,31.80
2023-01-19T18:28:33.118Z,22.80
2023-01-19T18:33:55.409Z,25.90
2023-01-19T18:39:17.377Z,18.90
2023-01-19T18:44:39.378Z,19.50
2023-01-19T18:50:01.320Z,16.80
2023-01-19T18:55:24.369Z,19.90
2023-01-19T19:00:46.696Z,18.80
2023-01-19T19:06:09.083Z,17.00
2023-01-19T19:11:31.163Z,15.50
2023-01-19T19:16:52.783Z,27.50
2023-01-19T19:22:14.920Z,19.60
2023-01-19T19:27:37.735Z,31.80
2023-01-19T19:33:01.160Z,31.90
2023-01-19T19:38:23.211Z,34.40
2023-01-19T19:43:45.604Z,26.50
2023-01-19T19:49:07.671Z,24.20
2023-01-19T19:54:29.717Z,22.20
2023-01-19T19:59:51.935Z,21.50
2023-01-19T20:05:13.577Z,20.60
2023-01-19T20:10:37.603Z,20.00
2023-01-19T20:16:02.452Z,20.70
2023-01-19T20:21:25.746Z,20.20
2023-01-19T20:26:51.160Z,24.40
2023-01-19T20:32:18.362Z,25.40
2023-01-19T20:37:41.896Z,23.30
2023-01-19T20:43:04.032Z,21.90
2023-01-19T20:48:26.055Z,21.30
2023-01-19T20:53:48.686Z,22.20
2023-01-19T20:59:12.402Z,23.50
2023-01-19T21:04:34.254Z,22.40
2023-01-19T21:09:56.286Z,23.80
2023-01-19T21:15:19.041Z,24.90
2023-01-19T21:20:47.135Z,23.80
2023-01-19T21:26:08.992Z,31.30
2023-01-19T21:31:30.689Z,23.20
2023-01-19T21:36:52.585Z,27.10
2023-01-19T21:42:14.687Z,25.10
2023-01-19T21:47:37.053Z,25.30
2023-01-19T21:52:58.748Z,24.80
2023-01-19T21:58:23.188Z,21.80
2023-01-19T22:03:44.859Z,25.40
2023-01-19T22:09:08.290Z,35.10
2023-01-19T22:14:30.080Z,27.00
2023-01-19T22:19:51.956Z,23.90
2023-01-19T22:25:15.169Z,23.10
2023-01-19T22:30:37.520Z,26.00
2023-01-19T22:36:19.575Z,23.80
2023-01-19T22:41:45.817Z,23.40
2023-01-19T22:47:09.071Z,24.20
2023-01-19T22:52:31.172Z,24.20
2023-01-19T22:57:52.898Z,24.20
2023-01-19T23:03:14.599Z,22.70
2023-01-19T23:08:37.671Z,21.80
2023-01-19T23:13:59.792Z,21.40
2023-01-19T23:19:22.023Z,22.10
2023-01-19T23:24:43.829Z,22.10
2023-01-19T23:30:06.582Z,21.90
2023-01-19T23:35:28.513Z,23.80
2023-01-19T23:40:50.352Z,23.80
2023-01-19T23:46:13.728Z,23.60
2023-01-19T23:51:35.943Z,27.70
2023-01-19T23:56:58.038Z,26.80
